createdAt,value
2022-12-16T00:00:26.502Z,21.48
2022-12-16T00:02:55.229Z,23.00
2022-12-16T00:05:23.365Z,23.50
2022-12-16T00:07:51.388Z,20.17
2022-12-16T00:10:20.221Z,19.98
2022-12-16T00:12:48.633Z,21.15
2022-12-16T00:15:17.016Z,20.92
2022-12-16T00:17:45.187Z,19.85
2022-12-16T00:20:13.359Z,21.98
2022-12-16T00:22:41.645Z,21.52
2022-12-16T00:25:10.063Z,19.77
2022-12-16T00:27:38.186Z,19.45
2022-12-16T00:30:07.139Z,21.85
2022-12-16T00:32:35.439Z,20.33
2022-12-16T00:35:03.833Z,19.17
2022-12-16T00:37:32.162Z,20.25
2022-12-16T00:40:00.625Z,18.92
2022-12-16T00:42:28.808Z,19.45
2022-12-16T00:44:57.120Z,19.27
2022-12-16T00:47:26.120Z,20.08
2022-12-16T00:49:54.255Z,23.63
2022-12-16T00:52:24.289Z,25.85
2022-12-16T00:54:52.483Z,24.38
2022-12-16T00:57:21.456Z,30.90
2022-12-16T00:59:52.449Z,28.98
2022-12-16T01:04:48.814Z,24.38
2022-12-16T01:07:16.750Z,30.73
2022-12-16T01:09:44.334Z,30.67
2022-12-16T01:12:12.182Z,29.35
2022-12-16T01:14:40.167Z,28.05
2022-12-16T01:17:07.921Z,29.42
2022-12-16T01:19:35.901Z,26.70
2022-12-16T01:22:04.534Z,27.77
2022-12-16T01:24:32.645Z,24.77
2022-12-16T01:27:00.439Z,24.27
2022-12-16T01:29:28.317Z,22.95
2022-12-16T01:31:56.307Z,22.00
2022-12-16T01:34:25.085Z,23.63
2022-12-16T01:36:52.829Z,22.20
2022-12-16T01:39:20.783Z,25.42
2022-12-16T01:41:48.823Z,22.48
2022-12-16T01:44:22.429Z,23.60
2022-12-16T01:46:54.061Z,22.98
2022-12-16T01:49:38.113Z,22.10
2022-12-16T01:52:11.139Z,22.88
2022-12-16T01:54:44.487Z,20.52
2022-12-16T01:57:16.231Z,21.55
2022-12-16T01:59:47.350Z,22.92
2022-12-16T02:05:03.545Z,24.27
2022-12-16T02:07:31.489Z,21.65
2022-12-16T02:10:00.235Z,20.20
2022-12-16T02:12:36.876Z,19.13
2022-12-16T02:15:25.759Z,18.85
2022-12-16T02:18:15.005Z,18.38
2022-12-16T02:20:42.544Z,21.00
2022-12-16T02:23:28.520Z,18.77
2022-12-16T02:26:35.377Z,19.52
2022-12-16T02:29:40.193Z,23.90
2022-12-16T02:32:38.725Z,23.73
2022-12-16T02:35:19.466Z,21.80
2022-12-16T02:38:12.096Z,26.75
2022-12-16T02:40:45.339Z,25.20
2022-12-16T02:43:29.010Z,23.35
2022-12-16T02:45:56.647Z,24.65
2022-12-16T02:48:24.268Z,24.27
2022-12-16T02:50:52.890Z,24.35
2022-12-16T02:53:21.647Z,22.67
2022-12-16T02:56:11.933Z,24.83
2022-12-16T02:58:54.795Z,24.40
2022-12-16T03:01:45.057Z,21.38
2022-12-16T03:04:20.941Z,21.90
2022-12-16T03:06:51.612Z,23.90
2022-12-16T03:09:24.566Z,25.70
2022-12-16T03:11:55.361Z,24.00
2022-12-16T03:14:27.421Z,33.08
2022-12-16T03:16:56.777Z,28.83
2022-12-16T03:19:26.664Z,30.52
2022-12-16T03:22:06.473Z,25.85
2022-12-16T03:24:34.990Z,28.25
2022-12-16T03:27:43.126Z,24.35
2022-12-16T03:30:18.015Z,25.50
2022-12-16T03:32:51.567Z,23.60
2022-12-16T03:35:44.686Z,23.80
2022-12-16T03:38:14.502Z,23.08
2022-12-16T03:40:44.722Z,24.17
2022-12-16T03:43:17.210Z,21.52
2022-12-16T03:45:49.081Z,24.65
2022-12-16T03:48:19.096Z,22.85
2022-12-16T03:50:46.673Z,20.20
2022-12-16T03:53:14.298Z,23.40
2022-12-16T03:55:41.982Z,24.42
2022-12-16T03:58:09.543Z,22.33
2022-12-16T04:00:37.127Z,25.67
2022-12-16T04:03:04.872Z,21.80
2022-12-16T04:05:33.031Z,26.70
2022-12-16T04:08:02.294Z,24.90
2022-12-16T04:10:49.265Z,26.50
2022-12-16T04:13:35.677Z,24.25
2022-12-16T04:16:22.389Z,27.80
2022-12-16T04:19:08.958Z,32.55
2022-12-16T04:21:55.569Z,35.17
2022-12-16T04:24:27.684Z,27.45
2022-12-16T04:27:15.964Z,28.13
2022-12-16T04:30:02.620Z,27.85
2022-12-16T04:32:51.628Z,25.08
2022-12-16T04:35:42.141Z,25.15
2022-12-16T04:38:41.778Z,27.17
2022-12-16T04:41:27.847Z,30.88
2022-12-16T04:44:14.622Z,29.45
2022-12-16T04:47:00.769Z,26.67
2022-12-16T04:49:46.877Z,26.52
2022-12-16T04:52:33.562Z,32.03
2022-12-16T04:55:19.684Z,27.45
2022-12-16T04:58:14.239Z,28.58
2022-12-16T05:01:00.787Z,28.25
2022-12-16T05:03:47.587Z,28.58
2022-12-16T05:06:34.215Z,28.27
2022-12-16T05:09:20.407Z,36.75
2022-12-16T05:12:07.172Z,30.77
2022-12-16T05:14:53.479Z,29.58
2022-12-16T05:17:40.138Z,31.67
2022-12-16T05:20:26.816Z,37.33
2022-12-16T05:23:15.565Z,35.63
2022-12-16T05:26:01.621Z,41.67
2022-12-16T05:28:47.672Z,39.78
2022-12-16T05:31:33.950Z,37.08
2022-12-16T05:34:20.064Z,37.90
2022-12-16T05:37:06.297Z,38.60
2022-12-16T05:39:52.430Z,38.67
2022-12-16T05:42:38.421Z,35.28
2022-12-16T05:45:24.930Z,34.30
2022-12-16T05:48:11.003Z,39.03
2022-12-16T05:50:57.245Z,35.58
2022-12-16T05:53:43.537Z,35.30
2022-12-16T05:56:40.346Z,31.83
2022-12-16T05:59:26.764Z,35.05
2022-12-16T06:02:13.063Z,27.73
2022-12-16T06:04:59.241Z,38.00
2022-12-16T06:07:45.650Z,32.28
2022-12-16T06:10:31.683Z,44.38
2022-12-16T06:13:17.959Z,43.13
2022-12-16T06:16:08.680Z,32.22
2022-12-16T06:18:55.759Z,33.80
2022-12-16T06:21:41.897Z,36.60
2022-12-16T06:24:28.106Z,33.58
2022-12-16T06:27:34.037Z,33.75
2022-12-16T06:30:20.250Z,34.08
2022-12-16T06:33:06.503Z,34.50
2022-12-16T06:35:52.577Z,32.85
2022-12-16T06:38:38.804Z,28.77
2022-12-16T06:41:24.921Z,34.35
2022-12-16T06:44:11.197Z,38.97
2022-12-16T06:46:57.726Z,32.13
2022-12-16T06:49:43.966Z,33.75
2022-12-16T06:52:29.968Z,33.88
2022-12-16T06:55:16.238Z,31.02
2022-12-16T06:58:05.414Z,34.90
2022-12-16T07:00:55.776Z,29.33
2022-12-16T07:03:42.299Z,29.90
2022-12-16T07:06:29.052Z,34.28
2022-12-16T07:09:15.398Z,35.20
2022-12-16T07:12:01.527Z,36.40
2022-12-16T07:14:47.706Z,36.97
2022-12-16T07:17:33.821Z,36.22
2022-12-16T07:20:36.926Z,33.53
2022-12-16T07:23:23.202Z,34.30
2022-12-16T07:26:09.299Z,36.50
2022-12-16T07:28:57.347Z,35.53
2022-12-16T07:31:49.246Z,37.08
2022-12-16T07:34:40.330Z,39.45
2022-12-16T07:37:27.596Z,40.92
2022-12-16T07:40:13.672Z,36.85
2022-12-16T07:43:00.953Z,41.65
2022-12-16T07:45:47.165Z,43.83
2022-12-16T07:48:33.281Z,40.13
2022-12-16T07:51:19.506Z,43.15
2022-12-16T07:54:05.826Z,39.72
2022-12-16T07:56:52.089Z,42.03
2022-12-16T07:59:38.222Z,43.10
2022-12-16T08:02:24.625Z,48.67
2022-12-16T08:08:40.650Z,48.95
2022-12-16T08:11:26.638Z,45.88
2022-12-16T08:14:12.861Z,42.65
2022-12-16T08:16:59.149Z,43.75
2022-12-16T08:19:45.154Z,44.65
2022-12-16T08:22:31.278Z,43.85
2022-12-16T08:28:28.972Z,48.58
2022-12-16T08:31:15.521Z,50.92
2022-12-16T08:34:01.489Z,52.63
2022-12-16T08:36:47.623Z,51.38
2022-12-16T08:39:33.965Z,50.28
2022-12-16T08:42:20.208Z,48.80
2022-12-16T08:45:06.561Z,48.13
2022-12-16T08:47:52.636Z,49.58
2022-12-16T08:50:38.984Z,55.90
2022-12-16T08:53:25.274Z,59.55
2022-12-16T08:56:11.412Z,61.45
2022-12-16T08:58:57.604Z,58.55
2022-12-16T09:01:43.954Z,55.40
2022-12-16T14:56:34.678Z,100.25
2022-12-16T14:59:30.312Z,109.65
2022-12-16T15:02:19.128Z,107.35
2022-12-16T15:05:05.865Z,114.72
2022-12-16T15:07:55.929Z,104.80
2022-12-16T15:10:46.534Z,87.80
2022-12-16T15:13:36.705Z,103.53
2022-12-16T15:19:28.692Z,89.97
2022-12-16T15:22:19.779Z,97.45
2022-12-16T15:25:06.446Z,85.38
2022-12-16T15:27:55.589Z,97.10
2022-12-16T15:30:55.166Z,94.10
2022-12-16T15:33:46.736Z,92.95
2022-12-16T15:36:55.298Z,102.60
2022-12-16T15:39:56.133Z,113.57
2022-12-16T15:42:47.872Z,87.28
2022-12-16T15:45:42.885Z,141.00
2022-12-16T15:48:36.403Z,83.53
2022-12-16T15:51:22.629Z,81.60
2022-12-16T15:54:22.494Z,83.60
2022-12-16T15:57:09.206Z,78.50
2022-12-16T16:00:11.470Z,82.50
2022-12-16T16:03:05.239Z,86.32
2022-12-16T16:06:02.410Z,83.97
2022-12-16T16:08:48.750Z,122.78
2022-12-16T16:11:34.991Z,86.45
2022-12-16T16:14:21.174Z,93.00
2022-12-16T16:17:07.426Z,98.55
2022-12-16T16:19:53.742Z,106.82
2022-12-16T16:22:41.669Z,92.03
2022-12-16T16:25:30.270Z,100.78
2022-12-16T16:28:16.522Z,111.82
2022-12-16T16:31:02.863Z,119.47
2022-12-16T16:33:48.882Z,106.05
2022-12-16T16:36:35.687Z,167.13
2022-12-16T16:39:21.852Z,127.93
2022-12-16T16:42:07.936Z,96.93
2022-12-16T16:44:54.216Z,114.97
2022-12-16T16:47:40.442Z,166.32
2022-12-16T16:50:32.567Z,176.48
2022-12-16T16:53:18.739Z,104.63
2022-12-16T16:56:20.312Z,104.97
2022-12-16T16:59:07.005Z,116.32
2022-12-16T17:01:53.261Z,90.15
2022-12-16T17:04:46.727Z,99.82
2022-12-16T17:07:33.257Z,164.55
2022-12-16T17:10:19.413Z,120.05
2022-12-16T17:13:05.655Z,91.60
2022-12-16T17:15:55.541Z,133.70
2022-12-16T17:18:46.732Z,114.32
2022-12-16T17:21:35.599Z,101.28
2022-12-16T17:24:22.054Z,103.93
2022-12-16T17:28:20.652Z,111.28
